Weather at Hévíz–Balaton Airport

Public forecast

Using degrees Celsius for public forecast. Weather courtesy of forecast.io.

Current aviation weather report (METAR) for Hévíz–Balaton Airport

2024/05/19 10:15 (retrieved 51 minutes ago)

LHSM 191015Z AUTO VRB03KT CAVOK 23/13 Q1012 NOSIG

Closest aviation forecast (TAF) to Hévíz–Balaton Airport

Closest forecast is Pápa Air Base, 43.0 nm (79.6 km) NNE.

2024/05/19 06:00 (retrieved 5 hours ago)

TAF LHPA 190515Z 1906/2006 14008KT CAVOK PROB30 TEMPO 1906/1910 23006KT 9999 SCT030TCU BKN060 BECMG 1910/1912 VRB03KT 9999 SCT050TCU PROB30 TEMPO 1912/1916 30005KT 8000 SHRA BKN040TCU BECMG 1916/1918 06006KT CAVOK PROB40 TEMPO 1922/2006 VRB18G28KT 8000 SHRA TSRA FEW030CB BKN040TCU